createdAt,value
2023-01-19T00:01:03.569Z,99480.13
2023-01-19T00:03:31.477Z,99488.38
2023-01-19T00:05:59.326Z,99493.67
2023-01-19T00:08:27.309Z,99496.52
2023-01-19T00:10:55.201Z,99500.86
2023-01-19T00:13:23.075Z,99499.05
2023-01-19T00:15:50.995Z,99504.13
2023-01-19T00:18:18.987Z,99506.72
2023-01-19T00:20:47.385Z,99514.95
2023-01-19T00:23:16.127Z,99516.42
2023-01-19T00:25:44.316Z,99517.89
2023-01-19T00:28:14.271Z,99522.09
2023-01-19T00:30:42.867Z,99527.40
2023-01-19T00:33:15.412Z,99528.66
2023-01-19T00:35:43.640Z,99537.20
2023-01-19T00:38:12.491Z,99541.13
2023-01-19T00:40:40.417Z,99543.18
2023-01-19T00:43:08.434Z,99542.42
2023-01-19T00:45:36.409Z,99544.59
2023-01-19T00:48:04.536Z,99544.44
2023-01-19T00:50:32.986Z,99544.77
2023-01-19T00:53:01.941Z,99543.92
2023-01-19T00:55:32.501Z,99543.88
2023-01-19T00:58:00.719Z,99543.70
2023-01-19T01:00:28.842Z,99544.35
2023-01-19T01:02:56.773Z,99551.97
2023-01-19T01:05:25.146Z,99559.33
2023-01-19T01:07:53.123Z,99563.88
2023-01-19T01:10:25.482Z,99567.95
2023-01-19T01:12:57.419Z,99572.02
2023-01-19T01:15:29.630Z,99575.45
2023-01-19T01:17:57.719Z,99577.70
2023-01-19T01:20:28.206Z,99579.14
2023-01-19T01:22:57.743Z,99582.03
2023-01-19T01:25:28.563Z,99581.66
2023-01-19T01:27:57.017Z,99585.89
2023-01-19T01:30:24.988Z,99595.23
2023-01-19T01:32:52.930Z,99601.27
2023-01-19T01:35:20.927Z,99604.48
2023-01-19T01:37:48.895Z,99606.44
2023-01-19T01:40:18.252Z,99605.66
2023-01-19T01:42:46.359Z,99600.67
2023-01-19T01:45:40.346Z,99599.20
2023-01-19T01:48:28.305Z,99596.60
2023-01-19T01:51:21.397Z,99592.69
2023-01-19T01:54:03.627Z,99592.88
2023-01-19T01:56:36.390Z,99592.54
2023-01-19T01:59:29.821Z,99598.08
2023-01-19T02:02:29.072Z,99606.69
2023-01-19T02:05:08.219Z,99613.47
2023-01-19T02:08:07.486Z,99617.45
2023-01-19T02:10:54.505Z,99617.33
2023-01-19T02:13:25.573Z,99620.80
2023-01-19T02:15:56.606Z,99623.54
2023-01-19T02:18:28.396Z,99632.58
2023-01-19T02:21:27.286Z,99641.31
2023-01-19T02:23:57.942Z,99648.34
2023-01-19T02:26:39.967Z,99651.33
2023-01-19T02:29:14.309Z,99646.67
2023-01-19T02:31:42.775Z,99639.80
2023-01-19T02:34:15.489Z,99640.39
2023-01-19T02:36:43.447Z,99640.23
2023-01-19T02:39:12.746Z,99631.70
2023-01-19T02:41:46.338Z,99630.41
2023-01-19T02:44:15.569Z,99631.94
2023-01-19T02:46:43.999Z,99633.94
2023-01-19T02:49:11.811Z,99633.11
2023-01-19T02:51:43.162Z,99634.45
2023-01-19T02:54:35.668Z,99632.98
2023-01-19T02:57:12.804Z,99640.02
2023-01-19T03:00:09.915Z,99645.60
2023-01-19T03:02:56.932Z,99648.52
2023-01-19T03:05:52.245Z,99653.38
2023-01-19T03:08:30.053Z,99649.54
2023-01-19T03:11:05.421Z,99648.61
2023-01-19T03:13:54.116Z,99650.77
2023-01-19T03:16:25.656Z,99653.86
2023-01-19T03:18:58.439Z,99652.86
2023-01-19T03:21:29.036Z,99651.47
2023-01-19T03:24:02.999Z,99647.23
2023-01-19T03:26:34.992Z,99651.47
2023-01-19T03:29:07.078Z,99657.88
2023-01-19T03:31:37.401Z,99663.05
2023-01-19T03:34:08.561Z,99667.16
2023-01-19T03:36:44.260Z,99669.46
2023-01-19T03:39:17.490Z,99670.01
2023-01-19T03:41:48.724Z,99667.37
2023-01-19T03:44:17.359Z,99660.74
2023-01-19T03:46:47.252Z,99663.73
2023-01-19T03:49:15.299Z,99670.02
2023-01-19T03:51:43.559Z,99674.31
2023-01-19T03:54:11.854Z,99679.44
2023-01-19T03:56:39.860Z,99679.08
2023-01-19T03:59:08.103Z,99681.48
2023-01-19T04:01:36.129Z,99684.27
2023-01-19T04:04:04.246Z,99689.17
2023-01-19T04:06:32.213Z,99688.31
2023-01-19T04:09:00.079Z,99686.78
2023-01-19T04:11:28.512Z,99686.70
2023-01-19T04:13:56.707Z,99687.16
2023-01-19T04:16:24.697Z,99685.86
2023-01-19T04:18:52.832Z,99682.96
2023-01-19T04:21:20.890Z,99686.73
2023-01-19T04:23:49.973Z,99686.57
2023-01-19T04:26:18.365Z,99690.15
2023-01-19T04:28:46.423Z,99696.86
2023-01-19T04:31:14.496Z,99698.82
2023-01-19T04:33:42.471Z,99703.52
2023-01-19T04:36:10.372Z,99705.57
2023-01-19T04:38:38.574Z,99708.07
2023-01-19T04:41:06.569Z,99711.44
2023-01-19T04:43:35.159Z,99713.09
2023-01-19T04:46:03.347Z,99715.73
2023-01-19T04:48:31.810Z,99714.83
2023-01-19T04:50:59.824Z,99720.02
2023-01-19T04:53:27.729Z,99724.04
2023-01-19T04:55:55.964Z,99726.61
2023-01-19T04:58:23.882Z,99722.26
2023-01-19T05:00:53.290Z,99724.63
2023-01-19T05:03:21.433Z,99721.64
2023-01-19T05:05:49.629Z,99724.01
2023-01-19T05:08:17.554Z,99720.30
2023-01-19T05:10:45.444Z,99722.45
2023-01-19T05:13:14.162Z,99726.85
2023-01-19T05:15:42.051Z,99730.61
2023-01-19T05:18:10.426Z,99726.62
2023-01-19T05:20:39.625Z,99727.14
2023-01-19T05:23:07.885Z,99727.80
2023-01-19T05:25:35.915Z,99730.73
2023-01-19T05:28:04.060Z,99737.35
2023-01-19T05:30:32.148Z,99735.86
2023-01-19T05:33:00.399Z,99743.23
2023-01-19T05:35:35.550Z,99741.39
2023-01-19T05:38:04.675Z,99742.73
2023-01-19T05:40:32.687Z,99748.35
2023-01-19T05:43:04.653Z,99745.61
2023-01-19T05:45:33.183Z,99749.50
2023-01-19T05:48:01.200Z,99754.08
2023-01-19T05:50:29.184Z,99755.59
2023-01-19T05:52:58.188Z,99756.75
2023-01-19T05:55:27.704Z,99756.29
2023-01-19T05:57:55.777Z,99763.16
2023-01-19T06:00:24.608Z,99766.48
2023-01-19T06:02:52.623Z,99771.79
2023-01-19T06:05:20.689Z,99773.02
2023-01-19T06:07:48.630Z,99774.33
2023-01-19T06:10:16.841Z,99779.98
2023-01-19T06:12:44.846Z,99782.41
2023-01-19T06:15:14.529Z,99790.02
2023-01-19T06:17:43.086Z,99794.06
2023-01-19T06:20:11.531Z,99798.55
2023-01-19T06:22:39.512Z,99804.09
2023-01-19T06:25:07.689Z,99805.66
2023-01-19T06:27:36.517Z,99813.70
2023-01-19T06:30:04.694Z,99821.08
2023-01-19T06:32:32.754Z,99832.18
2023-01-19T06:35:00.815Z,99838.73
2023-01-19T06:37:30.676Z,99845.71
2023-01-19T06:39:58.422Z,99854.10
2023-01-19T06:42:26.466Z,99853.89
2023-01-19T06:44:54.421Z,99859.25
2023-01-19T06:47:22.427Z,99864.84
2023-01-19T06:49:50.463Z,99867.32
2023-01-19T06:52:20.042Z,99872.68
2023-01-19T06:54:48.038Z,99878.25
2023-01-19T06:57:17.971Z,99874.77
2023-01-19T06:59:45.798Z,99870.60
2023-01-19T07:02:26.105Z,99867.26
2023-01-19T07:04:56.799Z,99872.64
2023-01-19T07:07:25.042Z,99876.91
2023-01-19T07:09:54.156Z,99882.33
2023-01-19T07:12:23.265Z,99890.36
2023-01-19T07:14:51.836Z,99892.33
2023-01-19T07:17:19.980Z,99890.34
2023-01-19T07:19:47.875Z,99888.94
2023-01-19T07:22:15.987Z,99890.42
2023-01-19T07:24:43.998Z,99894.27
2023-01-19T07:27:12.057Z,99891.27
2023-01-19T07:29:39.960Z,99894.35
2023-01-19T07:32:08.520Z,99897.70
2023-01-19T07:34:37.113Z,99898.79
2023-01-19T07:37:05.106Z,99897.66
2023-01-19T07:39:33.255Z,99896.96
2023-01-19T07:42:01.208Z,99898.55
2023-01-19T07:44:30.133Z,99900.20
2023-01-19T07:46:58.003Z,99912.69
2023-01-19T07:49:26.002Z,99912.80
2023-01-19T07:51:56.448Z,99917.21
2023-01-19T07:54:24.500Z,99921.84
2023-01-19T07:56:55.418Z,99926.14
2023-01-19T07:59:23.478Z,99930.61
2023-01-19T08:01:52.305Z,99930.56
2023-01-19T08:04:20.582Z,99936.83
2023-01-19T08:06:48.710Z,99936.60
2023-01-19T08:09:16.679Z,99937.04
2023-01-19T08:11:44.654Z,99935.17
2023-01-19T08:14:12.880Z,99932.09
2023-01-19T08:16:41.033Z,99930.23
2023-01-19T08:19:09.101Z,99924.75
2023-01-19T08:21:39.012Z,99921.50
2023-01-19T08:24:07.204Z,99917.89
2023-01-19T08:26:35.792Z,99914.88
2023-01-19T08:29:05.891Z,99918.56
2023-01-19T08:31:33.910Z,99918.95
2023-01-19T08:34:02.130Z,99920.35
2023-01-19T08:36:30.391Z,99923.04
2023-01-19T08:38:58.443Z,99924.06
2023-01-19T08:41:26.638Z,99923.20
2023-01-19T08:43:54.565Z,99925.69
2023-01-19T08:46:22.663Z,99927.03
2023-01-19T08:48:50.809Z,99925.34
2023-01-19T08:51:19.082Z,99926.86
2023-01-19T08:53:47.757Z,99928.63
2023-01-19T08:56:16.145Z,99929.90
2023-01-19T08:58:46.743Z,99930.86
2023-01-19T09:01:18.822Z,99938.27
2023-01-19T09:03:47.037Z,99942.70
2023-01-19T09:06:19.678Z,99945.13
2023-01-19T09:08:47.924Z,99956.19
2023-01-19T09:11:17.682Z,99959.86
2023-01-19T09:13:45.951Z,99963.55
2023-01-19T09:16:16.010Z,99970.05
2023-01-19T09:18:46.211Z,99972.74
2023-01-19T09:21:15.238Z,99973.25
2023-01-19T09:23:43.351Z,99977.11
2023-01-19T09:26:11.769Z,99977.67
2023-01-19T09:28:39.788Z,99981.01
2023-01-19T09:31:08.877Z,99980.02
2023-01-19T09:33:37.042Z,99978.61
2023-01-19T09:36:05.312Z,99978.11
2023-01-19T09:38:34.100Z,99976.54
2023-01-19T09:41:02.195Z,99974.83
2023-01-19T09:43:45.729Z,99976.20
2023-01-19T09:46:41.524Z,99974.36
2023-01-19T09:49:30.726Z,99975.96
2023-01-19T09:51:58.624Z,99970.89
2023-01-19T09:54:36.549Z,99967.86
2023-01-19T09:57:11.030Z,99968.15
2023-01-19T09:59:39.761Z,99968.97
2023-01-19T10:02:26.403Z,99970.43
2023-01-19T10:05:06.177Z,99977.91
2023-01-19T10:07:40.124Z,99983.81
2023-01-19T10:10:08.019Z,99988.14
2023-01-19T10:12:51.210Z,99991.46
2023-01-19T10:15:46.979Z,99990.01
2023-01-19T10:18:31.556Z,99994.77
2023-01-19T10:21:06.132Z,99994.61
2023-01-19T10:23:57.397Z,99991.59
2023-01-19T10:26:28.217Z,99996.38
2023-01-19T10:29:02.327Z,99997.34
2023-01-19T10:31:33.600Z,100001.56
2023-01-19T10:34:01.678Z,100004.88
2023-01-19T10:36:36.679Z,100003.33
2023-01-19T10:39:06.572Z,100007.42
2023-01-19T10:41:43.302Z,100006.78
2023-01-19T10:44:12.194Z,100005.23
2023-01-19T10:46:45.667Z,100002.71
2023-01-19T10:49:37.704Z,99995.95
2023-01-19T10:52:08.734Z,99991.98
2023-01-19T10:54:37.958Z,99994.23
2023-01-19T10:57:10.123Z,99993.52
2023-01-19T10:59:50.611Z,99992.05
2023-01-19T11:02:22.107Z,99990.20
2023-01-19T11:04:53.341Z,99990.77
2023-01-19T11:07:26.895Z,99988.09
2023-01-19T11:10:13.673Z,99983.98
2023-01-19T11:12:53.293Z,99980.96
2023-01-19T11:15:24.195Z,99982.21
2023-01-19T11:17:53.570Z,99980.66
2023-01-19T11:20:25.656Z,99975.95
2023-01-19T11:23:22.261Z,99975.58
2023-01-19T11:25:52.213Z,99976.91
2023-01-19T11:28:28.852Z,99975.91
2023-01-19T11:31:18.037Z,99973.88
2023-01-19T11:33:51.991Z,99971.04
2023-01-19T11:36:27.530Z,99967.84
2023-01-19T11:38:58.076Z,99967.43
2023-01-19T11:41:33.421Z,99972.76
2023-01-19T11:44:26.825Z,99973.33
2023-01-19T11:47:00.980Z,99974.83
2023-01-19T11:49:51.223Z,99979.04
2023-01-19T11:52:50.028Z,99976.23
2023-01-19T11:55:40.908Z,99972.54
2023-01-19T11:58:16.069Z,99969.85
2023-01-19T12:00:54.558Z,99968.13
2023-01-19T12:03:31.679Z,99966.68
2023-01-19T12:06:22.926Z,99963.42
2023-01-19T12:09:03.703Z,99964.21
2023-01-19T12:11:36.406Z,99965.36
2023-01-19T12:14:06.863Z,99964.02
2023-01-19T12:16:38.378Z,99963.55
2023-01-19T12:19:21.051Z,99969.90
2023-01-19T12:21:52.525Z,99967.99
2023-01-19T12:24:47.213Z,99967.14
2023-01-19T12:27:32.969Z,99974.34
2023-01-19T12:30:01.321Z,99971.27
2023-01-19T12:32:35.558Z,99973.59
2023-01-19T12:35:03.874Z,99971.02
2023-01-19T12:37:33.862Z,99970.81
2023-01-19T12:40:22.072Z,99975.83
2023-01-19T12:43:06.050Z,99975.05
2023-01-19T12:45:36.001Z,99977.44
2023-01-19T12:48:05.349Z,99976.75
2023-01-19T12:50:38.180Z,99975.83
2023-01-19T12:53:19.116Z,99977.21
2023-01-19T12:55:59.829Z,99971.66
2023-01-19T12:58:28.281Z,99966.23
2023-01-19T13:01:15.572Z,99965.35
2023-01-19T13:04:09.845Z,99957.48
2023-01-19T13:06:49.823Z,99959.84
2023-01-19T13:09:35.612Z,99953.65
2023-01-19T13:12:24.725Z,99956.41
2023-01-19T13:15:34.104Z,99958.57
2023-01-19T13:18:03.050Z,99962.13
2023-01-19T13:20:47.201Z,99959.33
2023-01-19T13:23:22.726Z,99958.39
2023-01-19T13:25:53.633Z,99956.78
2023-01-19T13:28:31.987Z,99950.20
2023-01-19T13:31:02.710Z,99951.63
2023-01-19T13:33:41.091Z,99949.58
2023-01-19T13:36:23.101Z,99947.91
2023-01-19T13:38:52.536Z,99946.29
2023-01-19T13:41:25.230Z,99950.71
2023-01-19T13:44:00.123Z,99952.17
2023-01-19T13:46:29.243Z,99948.73
2023-01-19T13:49:01.345Z,99951.05
2023-01-19T13:51:29.278Z,99950.92
2023-01-19T13:53:58.898Z,99952.63
2023-01-19T13:56:29.053Z,99959.77
2023-01-19T13:58:58.029Z,99965.33
2023-01-19T14:01:29.357Z,99966.88
2023-01-19T14:03:58.175Z,99967.92
2023-01-19T14:06:39.520Z,99971.07
2023-01-19T14:09:18.255Z,99970.27
2023-01-19T14:12:03.766Z,99968.94
2023-01-19T14:14:32.005Z,99961.84
2023-01-19T14:17:00.388Z,99957.24
2023-01-19T14:19:28.734Z,99952.89
2023-01-19T14:22:02.236Z,99954.27
2023-01-19T14:24:33.237Z,99952.12
2023-01-19T14:27:30.631Z,99956.61
2023-01-19T14:30:20.622Z,99954.77
2023-01-19T14:32:48.748Z,99956.89
2023-01-19T14:35:24.919Z,99955.71
2023-01-19T14:37:52.957Z,99954.93
2023-01-19T14:40:24.644Z,99958.50
2023-01-19T14:43:00.063Z,99958.90
2023-01-19T14:45:34.153Z,99959.90
2023-01-19T14:48:06.256Z,99961.31
2023-01-19T14:50:37.988Z,99965.39
2023-01-19T14:53:29.035Z,99968.36
2023-01-19T14:56:00.677Z,99968.66
2023-01-19T14:58:31.813Z,99970.04
2023-01-19T15:01:00.349Z,99966.27
2023-01-19T15:03:44.632Z,99967.81
2023-01-19T15:06:15.623Z,99972.16
2023-01-19T15:08:45.015Z,99972.73
2023-01-19T15:11:27.018Z,99977.30
2023-01-19T15:13:55.622Z,99979.13
2023-01-19T15:16:24.290Z,99984.04
2023-01-19T15:18:52.590Z,99981.36
2023-01-19T15:21:28.832Z,99985.72
2023-01-19T15:23:58.564Z,99989.91
2023-01-19T15:26:27.362Z,99988.39
2023-01-19T15:28:56.537Z,99989.33
2023-01-19T15:31:26.354Z,99987.55
2023-01-19T15:33:54.488Z,99994.11
2023-01-19T15:36:24.429Z,100002.00
2023-01-19T15:38:52.754Z,100004.06
2023-01-19T15:41:29.994Z,100003.27
2023-01-19T15:43:59.125Z,100003.98
2023-01-19T15:46:27.597Z,100008.62
2023-01-19T15:48:55.411Z,100006.64
2023-01-19T15:51:25.953Z,100006.70
2023-01-19T15:53:55.210Z,100011.73
2023-01-19T15:56:28.945Z,100013.96
2023-01-19T15:58:58.667Z,100009.20
2023-01-19T16:01:32.917Z,100008.42
2023-01-19T16:04:03.312Z,100010.45
2023-01-19T16:06:32.354Z,100015.69
2023-01-19T16:09:01.624Z,100021.54
2023-01-19T16:11:32.809Z,100024.38
2023-01-19T16:14:01.293Z,100032.33
2023-01-19T16:16:29.567Z,100038.23
2023-01-19T16:18:57.889Z,100044.70
2023-01-19T16:21:26.259Z,100050.21
2023-01-19T16:23:54.807Z,100052.77
2023-01-19T16:26:29.805Z,100057.73
2023-01-19T16:29:00.143Z,100057.00
2023-01-19T16:31:28.988Z,100062.84
2023-01-19T16:33:56.955Z,100062.88
2023-01-19T16:36:30.477Z,100066.02
2023-01-19T16:39:00.576Z,100072.24
2023-01-19T16:41:28.763Z,100078.88
2023-01-19T16:43:58.093Z,100078.52
2023-01-19T16:46:29.942Z,100084.27
2023-01-19T16:49:12.089Z,100087.84
2023-01-19T16:51:40.307Z,100092.27
2023-01-19T16:54:12.471Z,100090.41
2023-01-19T16:56:41.590Z,100094.42
2023-01-19T16:59:12.243Z,100103.26
2023-01-19T17:01:40.521Z,100103.77
2023-01-19T17:04:08.521Z,100105.77
2023-01-19T17:06:36.328Z,100107.34
2023-01-19T17:09:04.636Z,100115.12
2023-01-19T17:11:34.917Z,100118.77
2023-01-19T17:14:06.010Z,100122.07
2023-01-19T17:16:35.853Z,100128.55
2023-01-19T17:19:06.787Z,100128.33
2023-01-19T17:21:35.199Z,100129.19
2023-01-19T17:24:03.262Z,100134.65
2023-01-19T17:26:31.349Z,100133.93
2023-01-19T17:29:05.835Z,100140.97
2023-01-19T17:31:34.652Z,100139.88
2023-01-19T17:34:03.981Z,100142.92
2023-01-19T17:36:33.353Z,100145.44
2023-01-19T17:39:05.994Z,100147.82
2023-01-19T17:41:35.204Z,100147.71
2023-01-19T17:44:05.115Z,100147.34
2023-01-19T17:46:36.657Z,100148.73
2023-01-19T17:49:06.869Z,100143.85
2023-01-19T17:51:35.433Z,100137.86
2023-01-19T17:54:04.163Z,100137.39
2023-01-19T17:56:36.779Z,100135.00
2023-01-19T17:59:08.033Z,100137.23
2023-01-19T18:01:40.131Z,100139.63
2023-01-19T18:04:09.066Z,100137.17
2023-01-19T18:06:37.690Z,100139.04
2023-01-19T18:09:07.456Z,100141.29
2023-01-19T18:11:35.741Z,100143.98
2023-01-19T18:14:04.075Z,100140.53
2023-01-19T18:16:32.650Z,100134.73
2023-01-19T18:19:00.640Z,100131.21
2023-01-19T18:21:30.453Z,100130.09
2023-01-19T18:24:02.132Z,100131.34
2023-01-19T18:26:32.383Z,100128.95
2023-01-19T18:29:00.986Z,100128.73
2023-01-19T18:31:29.045Z,100124.45
2023-01-19T18:33:57.075Z,100120.08
2023-01-19T18:36:25.720Z,100118.92
2023-01-19T18:38:53.868Z,100119.73
2023-01-19T18:41:22.043Z,100113.64
2023-01-19T18:43:50.433Z,100110.71
2023-01-19T18:46:18.528Z,100105.77
2023-01-19T18:48:46.588Z,100106.05
2023-01-19T18:51:16.177Z,100108.67
2023-01-19T18:53:45.360Z,100110.81
2023-01-19T18:56:15.695Z,100111.66
2023-01-19T18:58:44.827Z,100112.79
2023-01-19T19:01:35.173Z,100115.58
2023-01-19T19:04:03.441Z,100115.57
2023-01-19T19:06:31.397Z,100118.35
2023-01-19T19:08:59.848Z,100123.86
2023-01-19T19:11:28.338Z,100124.55
2023-01-19T19:14:01.291Z,100128.52
2023-01-19T19:16:32.149Z,100131.64
2023-01-19T19:19:01.570Z,100133.50
2023-01-19T19:21:29.569Z,100130.38
2023-01-19T19:23:58.440Z,100126.79
2023-01-19T19:26:28.444Z,100124.96
2023-01-19T19:28:56.564Z,100125.11
2023-01-19T19:31:26.240Z,100127.02
2023-01-19T19:33:57.975Z,100132.14
2023-01-19T19:36:28.162Z,100136.63
2023-01-19T19:38:56.243Z,100141.41
2023-01-19T19:41:29.154Z,100142.81
2023-01-19T19:43:57.205Z,100145.59
2023-01-19T19:46:26.969Z,100151.14
2023-01-19T19:48:54.931Z,100155.30
2023-01-19T19:51:28.514Z,100161.48
2023-01-19T19:53:58.988Z,100172.69
2023-01-19T19:56:29.448Z,100173.34
2023-01-19T19:58:59.754Z,100171.30
2023-01-19T20:01:32.953Z,100173.69
2023-01-19T20:04:08.748Z,100175.09
2023-01-19T20:06:39.931Z,100174.13
2023-01-19T20:09:10.583Z,100171.77
2023-01-19T20:11:39.147Z,100172.10
2023-01-19T20:14:08.807Z,100173.86
2023-01-19T20:16:37.065Z,100175.20
2023-01-19T20:19:05.552Z,100174.27
2023-01-19T20:21:39.327Z,100178.58
2023-01-19T20:24:12.345Z,100183.52
2023-01-19T20:26:43.302Z,100187.79
2023-01-19T20:29:12.062Z,100185.20
2023-01-19T20:31:47.299Z,100182.41
2023-01-19T20:34:18.048Z,100184.53
2023-01-19T20:36:51.440Z,100184.69
2023-01-19T20:39:21.486Z,100185.27
2023-01-19T20:41:51.428Z,100185.81
2023-01-19T20:44:22.943Z,100185.39
2023-01-19T20:46:52.007Z,100179.71
2023-01-19T20:49:20.323Z,100178.80
2023-01-19T20:51:48.747Z,100177.85
2023-01-19T20:54:19.293Z,100178.46
2023-01-19T20:56:47.405Z,100177.81
2023-01-19T20:59:15.264Z,100185.06
2023-01-19T21:01:43.871Z,100190.34
2023-01-19T21:04:12.956Z,100191.80
2023-01-19T21:06:41.740Z,100197.36
2023-01-19T21:09:10.925Z,100196.36
2023-01-19T21:11:39.764Z,100194.41
2023-01-19T21:14:07.881Z,100197.02
2023-01-19T21:16:36.809Z,100200.23
2023-01-19T21:19:04.962Z,100201.95
2023-01-19T21:21:32.972Z,100205.54
2023-01-19T21:24:03.059Z,100208.66
2023-01-19T21:26:33.441Z,100215.38
2023-01-19T21:29:02.953Z,100219.72
2023-01-19T21:31:31.170Z,100225.77
2023-01-19T21:34:03.978Z,100227.06
2023-01-19T21:36:32.536Z,100228.24
2023-01-19T21:39:01.013Z,100237.59
2023-01-19T21:41:34.854Z,100244.69
2023-01-19T21:44:03.153Z,100252.44
2023-01-19T21:46:33.179Z,100254.39
2023-01-19T21:49:04.272Z,100259.59
2023-01-19T21:51:34.857Z,100256.45
2023-01-19T21:54:05.596Z,100259.94
2023-01-19T21:56:34.888Z,100256.27
2023-01-19T21:59:03.451Z,100260.23
2023-01-19T22:01:33.450Z,100262.36
2023-01-19T22:04:01.426Z,100266.25
2023-01-19T22:06:29.474Z,100264.01
2023-01-19T22:08:58.511Z,100261.51
2023-01-19T22:11:27.519Z,100263.10
2023-01-19T22:13:55.335Z,100267.95
2023-01-19T22:16:23.992Z,100276.09
2023-01-19T22:18:56.310Z,100279.81
2023-01-19T22:21:26.412Z,100281.86
2023-01-19T22:23:56.791Z,100279.77
2023-01-19T22:26:26.515Z,100279.09
2023-01-19T22:28:56.344Z,100284.22
2023-01-19T22:31:25.699Z,100287.30
2023-01-19T22:33:54.245Z,100287.86
2023-01-19T22:36:35.473Z,100287.27
2023-01-19T22:39:06.719Z,100277.86
2023-01-19T22:41:40.934Z,100277.55
2023-01-19T22:44:13.713Z,100277.20
2023-01-19T22:46:42.279Z,100274.48
2023-01-19T22:49:13.813Z,100272.71
2023-01-19T22:51:42.563Z,100269.08
2023-01-19T22:54:11.713Z,100273.22
2023-01-19T22:56:41.148Z,100277.76
2023-01-19T22:59:09.858Z,100284.39
2023-01-19T23:01:40.728Z,100290.85
2023-01-19T23:04:12.714Z,100289.10
2023-01-19T23:06:41.228Z,100288.58
2023-01-19T23:09:14.384Z,100281.20
2023-01-19T23:11:44.726Z,100283.15
2023-01-19T23:14:15.658Z,100279.85
2023-01-19T23:16:43.644Z,100280.96
2023-01-19T23:19:12.946Z,100280.52
2023-01-19T23:21:41.543Z,100281.61
2023-01-19T23:24:10.302Z,100283.77
2023-01-19T23:26:38.585Z,100291.02
2023-01-19T23:29:12.252Z,100292.59
2023-01-19T23:31:44.192Z,100291.39
2023-01-19T23:34:12.779Z,100291.86
2023-01-19T23:36:42.588Z,100287.56
2023-01-19T23:39:16.433Z,100294.16
2023-01-19T23:41:45.009Z,100292.69
2023-01-19T23:44:13.629Z,100289.78
2023-01-19T23:46:41.623Z,100287.08
2023-01-19T23:49:09.675Z,100297.08
2023-01-19T23:51:39.143Z,100303.27
2023-01-19T23:54:07.379Z,100305.13
2023-01-19T23:56:37.539Z,100303.92
2023-01-19T23:59:08.199Z,100301.13
